Aérodrome :
LOGIN :

S'inscrire | Disclaimer

   EN    FR    IT 

 










Légende :    VFR   VFR Marginal   IFR   IFR Intensif   IFR Très Intensif
Visi : 
Plafond : 
>= 8 km
>= 3000ft
5 à 8 km
1000 à 3000 ft
1500m à 5 km
500 à 1000 ft
800 à 1500m
200 à 500 ft
< 800m
< 200 ft
Symboles :   Orages  Brouillard  Fortes neiges  Fortes précipitations  Vent > 20 kt
SIGMETs :   Divers  Orages  Givrage  Turbulence  Onde Orograph.  Cendres Volcan.







- Altitude de l'aérodrome : 72 ft
- Code IATA : UDE


EHVK - Volkel Airbase

DERNIER METAR :
  • 170825Z AUTO 16007KT 120V190 9999 NCD 22/13 Q1020 BLU VRB02KT CAVOK

METARs EXPIRÉS :
  • 170755Z AUTO 14007KT 100V190 9999 NCD 22/14 Q1021 BLU VRB02KT CAVOK
  • 170725Z AUTO 13005KT 080V180 9999 NCD 21/15 Q1021 BLU VRB02KT CAVOK
  • 170655Z AUTO 14005KT 110V170 9999 NCD 20/14 Q1021 BLU VRB02KT CAVOK
  • 170625Z AUTO 13003KT 090V180 9999 NCD 19/14 Q1021 BLU VRB02KT CAVOK
  • 170555Z AUTO VRB02KT 9999 NCD 17/13 Q1021 BLU VRB02KT CAVOK

TAF TAF EHVK
Valide du 17 à 05h jusqu'au 17 à 17h UTC


170421Z 1705/1717 16004KT CAVOK
BECMG 1715/1717 VRB02KT
Pas de NOTAMs connus pour ce terrain.



MET'MAP, la Météo Aéronautique d'un coup d'oeil ! - Copyright ORBIFLY Décembre 2007 - Disclaimer

ORBIFLY MET'MAP TEAM :

Programmation & Développement : Alexandra Zaïnal
Conception & Développement : Baudouin d'Aumeries
Co-Programmation & Développement : Marc-Olivier Méhu
Soutien technique & logistique : Manuel Goepfert

Contact : metmap@orbifly.com




SOURCES & CREDITS :

   NOAA